createdAt,value
2019-04-06T00:01:03.379Z,22.13
2019-04-06T00:03:33.718Z,22.03
2019-04-06T00:06:03.211Z,21.57
2019-04-06T00:08:32.543Z,23.10
2019-04-06T00:11:01.934Z,22.60
2019-04-06T00:13:31.276Z,21.70
2019-04-06T00:16:04.817Z,22.27
2019-04-06T00:18:34.198Z,22.00
2019-04-06T00:21:03.539Z,21.73
2019-04-06T00:23:32.808Z,22.60
2019-04-06T00:26:02.144Z,22.37
2019-04-06T00:28:31.412Z,20.83
2019-04-06T00:31:12.488Z,18.30
2019-04-06T00:33:41.788Z,21.17
2019-04-06T00:36:11.128Z,21.47
2019-04-06T00:38:40.495Z,22.67
2019-04-06T00:41:11.296Z,21.63
2019-04-06T00:43:40.627Z,21.73
2019-04-06T00:46:09.933Z,22.07
2019-04-06T00:48:39.264Z,20.80
2019-04-06T00:51:08.619Z,22.30
2019-04-06T00:53:37.920Z,22.17
2019-04-06T00:56:07.350Z,21.50
2019-04-06T00:58:36.704Z,21.77
2019-04-06T01:01:06.341Z,22.07
2019-04-06T01:03:35.631Z,22.17
2019-04-06T01:06:04.942Z,21.23
2019-04-06T01:08:34.285Z,21.93
2019-04-06T01:11:03.601Z,21.27
2019-04-06T01:13:32.947Z,21.80
2019-04-06T01:16:02.276Z,21.83
2019-04-06T01:18:31.644Z,20.47
2019-04-06T01:21:00.955Z,22.63
2019-04-06T01:23:30.250Z,22.67
2019-04-06T01:26:07.059Z,22.93
2019-04-06T01:28:30.541Z,21.13
2019-04-06T01:31:01.730Z,23.17
2019-04-06T01:33:31.087Z,21.97
2019-04-06T01:36:00.447Z,22.07
2019-04-06T01:38:41.029Z,19.50
2019-04-06T01:41:10.308Z,17.37
2019-04-06T01:43:39.679Z,16.87
2019-04-06T01:46:08.983Z,16.77
2019-04-06T01:48:38.304Z,16.17
2019-04-06T01:51:07.587Z,15.80
2019-04-06T01:53:36.883Z,16.07
2019-04-06T01:56:06.203Z,17.30
2019-04-06T01:58:35.507Z,17.97
2019-04-06T02:01:13.679Z,17.53
2019-04-06T02:03:43.044Z,17.57
2019-04-06T02:06:12.418Z,16.67
2019-04-06T02:08:41.697Z,16.30
2019-04-06T02:11:11.009Z,16.47
2019-04-06T02:13:40.359Z,16.97
2019-04-06T02:16:09.751Z,18.13
2019-04-06T02:18:39.068Z,18.47
2019-04-06T02:21:08.331Z,17.33
2019-04-06T02:23:37.691Z,17.40
2019-04-06T02:26:07.029Z,17.73
2019-04-06T02:28:36.359Z,18.50
2019-04-06T02:31:18.068Z,16.63
2019-04-06T02:34:04.037Z,17.47
2019-04-06T02:36:58.376Z,18.07
2019-04-06T02:39:57.224Z,16.37
2019-04-06T02:42:33.964Z,16.20
2019-04-06T02:45:03.367Z,16.87
2019-04-06T02:47:32.775Z,17.13
2019-04-06T02:50:02.110Z,16.43
2019-04-06T02:52:31.483Z,17.03
2019-04-06T02:55:01.823Z,17.67
2019-04-06T02:57:31.096Z,17.83
2019-04-06T03:00:00.577Z,18.07
2019-04-06T03:02:29.977Z,18.70
2019-04-06T03:04:59.359Z,17.37
2019-04-06T03:07:28.961Z,18.87
2019-04-06T03:09:58.480Z,17.77
2019-04-06T03:12:28.208Z,16.33
2019-04-06T03:14:57.658Z,17.73
2019-04-06T03:17:28.087Z,17.53
2019-04-06T03:19:59.137Z,17.33
2019-04-06T03:22:28.613Z,17.87
2019-04-06T03:24:57.932Z,16.67
2019-04-06T03:27:27.259Z,17.70
2019-04-06T03:29:58.889Z,16.23
2019-04-06T03:32:27.952Z,16.90
2019-04-06T03:34:57.378Z,18.97
2019-04-06T03:37:29.709Z,17.73
2019-04-06T03:40:00.501Z,18.23
2019-04-06T03:42:29.771Z,18.30
2019-04-06T03:44:59.126Z,17.63
2019-04-06T03:47:29.576Z,17.87
2019-04-06T03:49:58.956Z,18.07
2019-04-06T03:52:28.499Z,18.10
2019-04-06T03:54:59.604Z,18.50
2019-04-06T03:57:28.903Z,17.30
2019-04-06T03:59:58.226Z,17.27
2019-04-06T04:02:27.536Z,18.70
2019-04-06T04:04:56.896Z,17.80
2019-04-06T04:07:26.161Z,17.67
2019-04-06T04:09:55.583Z,17.63
2019-04-06T04:12:24.860Z,18.50
2019-04-06T04:14:54.178Z,18.57
2019-04-06T04:17:23.640Z,17.87
2019-04-06T04:19:53.295Z,17.40
2019-04-06T04:22:24.081Z,17.70
2019-04-06T04:24:53.379Z,17.00
2019-04-06T04:27:29.341Z,17.30
2019-04-06T04:29:53.825Z,18.13
2019-04-06T04:32:23.129Z,17.13
2019-04-06T04:34:52.423Z,17.40
2019-04-06T04:37:21.749Z,18.17
2019-04-06T04:39:52.905Z,18.53
2019-04-06T04:42:22.400Z,18.67
2019-04-06T04:44:51.744Z,16.57
2019-04-06T04:47:21.038Z,17.43
2019-04-06T04:49:50.375Z,18.50
2019-04-06T04:52:19.677Z,17.80
2019-04-06T04:54:49.005Z,18.73
2019-04-06T04:57:18.296Z,18.93
2019-04-06T04:59:47.619Z,18.67
2019-04-06T05:02:17.066Z,18.73
2019-04-06T05:04:46.407Z,18.00
2019-04-06T05:07:15.678Z,18.83
2019-04-06T05:09:44.988Z,17.97
2019-04-06T05:12:14.287Z,17.40
2019-04-06T05:15:03.776Z,18.63
2019-04-06T05:17:33.083Z,18.33
2019-04-06T05:20:03.753Z,19.00
2019-04-06T05:22:33.053Z,18.37
2019-04-06T05:25:02.501Z,17.80
2019-04-06T05:27:31.865Z,19.17
2019-04-06T05:30:01.270Z,19.23
2019-04-06T05:32:30.629Z,18.63
2019-04-06T05:34:59.922Z,18.47
2019-04-06T05:37:29.289Z,18.83
2019-04-06T05:39:58.640Z,17.57
2019-04-06T05:42:27.993Z,18.53
2019-04-06T05:44:57.298Z,18.17
2019-04-06T05:47:26.663Z,18.67
2019-04-06T05:49:55.983Z,17.73
2019-04-06T05:52:25.284Z,19.27
2019-04-06T05:54:54.612Z,17.43
2019-04-06T05:57:23.880Z,17.80
2019-04-06T05:59:53.158Z,18.37
2019-04-06T06:02:22.543Z,17.57
2019-04-06T06:04:51.825Z,17.17
2019-04-06T06:07:21.466Z,18.60
2019-04-06T06:09:50.794Z,17.83
2019-04-06T06:12:20.852Z,18.43
2019-04-06T06:14:50.119Z,17.97
2019-04-06T06:17:19.450Z,18.53
2019-04-06T06:19:48.759Z,18.77
2019-04-06T06:22:18.182Z,18.63
2019-04-06T06:24:47.510Z,18.80
2019-04-06T06:27:16.781Z,18.30
2019-04-06T06:29:46.108Z,17.63
2019-04-06T06:32:15.379Z,18.80
2019-04-06T06:34:44.687Z,18.93
2019-04-06T06:37:14.001Z,18.47
2019-04-06T06:39:43.326Z,19.27
2019-04-06T06:42:12.678Z,18.97
2019-04-06T06:44:43.184Z,19.13
2019-04-06T06:47:12.500Z,18.23
2019-04-06T06:49:41.832Z,17.80
2019-04-06T06:52:11.187Z,18.70
2019-04-06T06:54:40.451Z,19.90
2019-04-06T06:57:09.997Z,18.20
2019-04-06T06:59:39.253Z,17.70
2019-04-06T07:02:08.571Z,18.97
2019-04-06T07:04:37.870Z,19.73
2019-04-06T07:07:07.243Z,19.60
2019-04-06T07:09:36.524Z,18.93
2019-04-06T07:12:06.062Z,18.93
2019-04-06T07:14:35.330Z,20.83
2019-04-06T07:17:04.628Z,19.47
2019-04-06T07:19:35.378Z,19.13
2019-04-06T07:22:04.667Z,20.10
2019-04-06T07:24:33.961Z,20.70
2019-04-06T07:27:03.234Z,21.53
2019-04-06T07:29:32.703Z,20.30
2019-04-06T07:32:03.790Z,18.10
2019-04-06T07:34:33.102Z,18.50
2019-04-06T07:37:02.411Z,17.47
2019-04-06T07:39:31.720Z,17.90
2019-04-06T07:42:01.039Z,16.97
2019-04-06T07:44:30.333Z,18.43
2019-04-06T07:46:59.641Z,19.53
2019-04-06T07:49:29.165Z,18.52
2019-04-06T07:51:59.624Z,19.73
2019-04-06T07:54:28.915Z,18.25
2019-04-06T07:56:58.212Z,19.10
2019-04-06T07:59:27.604Z,19.27
2019-04-06T08:01:57.017Z,18.50
2019-04-06T08:04:26.310Z,18.23
2019-04-06T08:06:55.803Z,18.62
2019-04-06T08:09:25.385Z,17.45
2019-04-06T08:11:56.193Z,17.75
2019-04-06T08:14:25.511Z,16.17
2019-04-06T08:16:54.825Z,15.85
2019-04-06T08:19:24.212Z,14.05
2019-04-06T08:21:53.545Z,15.58
2019-04-06T08:24:22.846Z,15.23
2019-04-06T08:26:52.319Z,14.73
2019-04-06T08:29:21.620Z,15.32
2019-04-06T08:31:52.732Z,15.23
2019-04-06T08:34:22.030Z,13.75
2019-04-06T08:36:51.331Z,13.40
2019-04-06T08:39:20.660Z,12.98
2019-04-06T08:41:50.007Z,13.90
2019-04-06T08:44:19.331Z,13.25
2019-04-06T08:46:49.718Z,12.47
2019-04-06T08:49:19.013Z,12.80
2019-04-06T08:51:48.300Z,12.30
2019-04-06T08:54:19.089Z,13.40
2019-04-06T08:56:48.507Z,12.78
2019-04-06T08:59:20.359Z,12.75
2019-04-06T09:01:50.029Z,11.10
2019-04-06T09:04:19.422Z,11.83
2019-04-06T09:06:48.729Z,11.43
2019-04-06T09:09:18.009Z,12.03
2019-04-06T09:11:47.346Z,10.85
2019-04-06T09:14:16.739Z,10.72
2019-04-06T09:16:46.092Z,10.30
2019-04-06T09:19:15.413Z,11.75
2019-04-06T09:21:44.705Z,10.32
2019-04-06T09:24:14.244Z,10.08
2019-04-06T09:26:48.006Z,11.25
2019-04-06T09:29:23.297Z,10.58
2019-04-06T09:31:48.524Z,11.48
2019-04-06T09:34:17.894Z,10.70
2019-04-06T09:36:48.413Z,10.08
2019-04-06T09:39:17.696Z,10.05
2019-04-06T09:41:48.494Z,10.30
2019-04-06T09:44:39.821Z,10.75
2019-04-06T09:47:21.433Z,11.08
2019-04-06T09:50:08.690Z,10.50
2019-04-06T09:53:06.369Z,10.03
2019-04-06T09:55:45.760Z,10.05
2019-04-06T09:58:37.161Z,9.73
2019-04-06T10:01:37.308Z,10.30
2019-04-06T10:04:09.092Z,9.80
2019-04-06T10:07:17.412Z,9.55
2019-04-06T10:10:17.600Z,9.13
2019-04-06T10:13:20.940Z,10.20
2019-04-06T10:16:05.984Z,7.77
2019-04-06T10:19:06.577Z,8.03
2019-04-06T10:21:47.434Z,8.77
2019-04-06T10:24:54.227Z,6.90
2019-04-06T10:27:40.553Z,6.50
2019-04-06T10:30:44.397Z,7.00
2019-04-06T10:33:32.651Z,7.20
2019-04-06T10:36:14.276Z,7.53
2019-04-06T10:39:01.038Z,7.43
2019-04-06T10:41:40.796Z,8.77
2019-04-06T10:44:19.450Z,8.10
2019-04-06T10:47:18.159Z,8.03
2019-04-06T10:49:53.090Z,8.40
2019-04-06T10:52:53.194Z,8.27
2019-04-06T10:55:44.157Z,8.10
2019-04-06T10:58:40.294Z,7.87
2019-04-06T11:01:31.853Z,8.13
2019-04-06T11:04:06.987Z,8.43
2019-04-06T11:06:45.631Z,8.37
2019-04-06T11:09:26.699Z,8.00
2019-04-06T11:12:11.197Z,8.00
2019-04-06T11:14:52.518Z,9.03
2019-04-06T11:17:52.930Z,8.10
2019-04-06T11:20:42.964Z,8.70
2019-04-06T11:23:29.887Z,7.50
2019-04-06T11:26:33.450Z,8.17
2019-04-06T11:29:31.079Z,7.60
2019-04-06T11:32:14.489Z,8.00
2019-04-06T11:35:20.985Z,8.63
2019-04-06T11:38:21.326Z,9.67
2019-04-06T11:41:08.843Z,8.37
2019-04-06T11:43:52.648Z,8.30
2019-04-06T11:46:46.965Z,7.60
2019-04-06T11:49:37.264Z,8.57
2019-04-06T11:52:30.785Z,8.50
2019-04-06T11:55:20.584Z,8.70
2019-04-06T11:58:20.811Z,8.63
2019-04-06T12:01:15.828Z,8.47
2019-04-06T12:04:04.860Z,9.60
2019-04-06T12:07:00.962Z,9.43
2019-04-06T12:09:47.353Z,9.30
2019-04-06T12:12:42.877Z,8.77
2019-04-06T12:15:21.864Z,8.73
2019-04-06T12:18:06.849Z,8.47
2019-04-06T12:20:55.508Z,8.00
2019-04-06T12:23:51.829Z,8.73
2019-04-06T12:26:40.006Z,7.73
2019-04-06T12:29:27.199Z,7.67
2019-04-06T12:32:15.485Z,7.17
2019-04-06T12:35:12.350Z,7.17
2019-04-06T12:38:03.124Z,7.33
2019-04-06T12:40:51.181Z,7.30
2019-04-06T12:43:42.753Z,7.20
2019-04-06T12:46:33.486Z,7.43
2019-04-06T12:49:15.463Z,6.70
2019-04-06T12:52:06.659Z,7.50
2019-04-06T12:54:49.997Z,8.17
2019-04-06T12:57:38.230Z,7.70
2019-04-06T13:00:27.088Z,7.40
2019-04-06T13:03:24.651Z,7.67
2019-04-06T13:06:03.482Z,8.20
2019-04-06T13:08:54.742Z,8.37
2019-04-06T13:11:42.156Z,8.87
2019-04-06T13:14:30.736Z,7.80
2019-04-06T13:17:17.937Z,7.70
2019-04-06T13:20:15.146Z,7.57
2019-04-06T13:22:57.362Z,6.93
2019-04-06T13:25:40.123Z,7.13
2019-04-06T13:28:40.771Z,6.70
2019-04-06T13:31:41.098Z,6.57
2019-04-06T13:34:18.957Z,6.80
2019-04-06T13:37:01.580Z,6.57
2019-04-06T13:39:52.859Z,6.20
2019-04-06T13:42:46.233Z,6.90
2019-04-06T13:45:29.305Z,5.83
2019-04-06T13:48:23.378Z,6.40
2019-04-06T13:51:24.207Z,5.90
2019-04-06T13:54:01.536Z,6.60
2019-04-06T13:56:58.909Z,6.03
2019-04-06T13:59:39.078Z,6.10
2019-04-06T14:02:33.691Z,7.10
2019-04-06T14:05:24.270Z,6.77
2019-04-06T14:08:12.504Z,6.00
2019-04-06T14:10:59.694Z,6.37
2019-04-06T14:13:37.765Z,6.33
2019-04-06T14:16:21.885Z,5.53
2019-04-06T14:19:10.495Z,6.27
2019-04-06T14:22:14.098Z,6.33
2019-04-06T14:25:03.740Z,7.60
2019-04-06T14:27:40.018Z,6.63
2019-04-06T14:30:15.656Z,7.33
2019-04-06T14:33:04.133Z,6.93
2019-04-06T14:36:09.461Z,6.73
2019-04-06T14:38:50.985Z,6.17
2019-04-06T14:41:38.088Z,6.80
2019-04-06T14:44:19.658Z,6.43
2019-04-06T14:47:06.259Z,6.87
2019-04-06T14:50:06.484Z,6.53
2019-04-06T14:52:52.843Z,7.07
2019-04-06T14:55:43.516Z,6.77
2019-04-06T14:58:36.188Z,6.67
2019-04-06T15:01:12.254Z,6.67
2019-04-06T15:04:06.625Z,6.77
2019-04-06T15:07:13.588Z,6.30
2019-04-06T15:10:00.283Z,5.87
2019-04-06T15:13:03.689Z,6.97
2019-04-06T15:15:53.305Z,5.57
2019-04-06T15:18:41.936Z,5.70
2019-04-06T15:21:21.059Z,5.67
2019-04-06T15:24:12.637Z,5.60
2019-04-06T15:27:13.439Z,6.60
2019-04-06T15:29:48.865Z,6.73
2019-04-06T15:32:33.618Z,7.83
2019-04-06T15:35:21.854Z,7.57
2019-04-06T15:38:13.270Z,7.87
2019-04-06T15:40:57.828Z,6.80
2019-04-06T15:43:45.926Z,7.03
2019-04-06T15:46:43.729Z,7.57
2019-04-06T15:49:35.167Z,7.97
2019-04-06T15:52:35.660Z,8.37
2019-04-06T15:55:25.934Z,7.27
2019-04-06T15:58:07.709Z,7.43
2019-04-06T16:01:02.827Z,7.77
2019-04-06T16:03:54.406Z,8.27
2019-04-06T16:06:34.735Z,7.70
2019-04-06T16:09:24.025Z,7.53
2019-04-06T16:12:06.747Z,8.00
2019-04-06T16:14:46.175Z,7.47
2019-04-06T16:17:27.831Z,8.03
2019-04-06T16:20:16.191Z,8.13
2019-04-06T16:23:24.254Z,7.37
2019-04-06T16:26:24.783Z,6.87
2019-04-06T16:29:14.006Z,9.33
2019-04-06T16:32:15.050Z,8.30
2019-04-06T16:35:09.491Z,7.33
2019-04-06T16:38:02.900Z,7.13
2019-04-06T16:40:51.755Z,7.10
2019-04-06T16:43:45.990Z,7.07
2019-04-06T16:46:39.049Z,7.53
2019-04-06T16:49:27.087Z,7.13
2019-04-06T16:52:27.179Z,6.43
2019-04-06T16:55:07.810Z,6.43
2019-04-06T16:57:47.267Z,7.60
2019-04-06T17:00:36.890Z,10.40
2019-04-06T17:03:15.326Z,7.00
2019-04-06T17:06:18.800Z,7.13
2019-04-06T17:09:09.873Z,8.70
2019-04-06T17:11:59.274Z,12.23
2019-04-06T17:14:46.253Z,8.07
2019-04-06T17:17:41.051Z,7.53
2019-04-06T17:20:28.575Z,8.20
2019-04-06T17:23:27.293Z,7.20
2019-04-06T17:26:04.779Z,7.53
2019-04-06T17:28:51.912Z,7.20
2019-04-06T17:31:44.171Z,7.40
2019-04-06T17:34:34.063Z,8.23
2019-04-06T17:37:16.063Z,7.53
2019-04-06T17:40:07.547Z,6.97
2019-04-06T17:42:55.910Z,6.30
2019-04-06T17:45:43.823Z,7.63
2019-04-06T17:48:31.669Z,7.80
2019-04-06T17:51:14.575Z,6.93
2019-04-06T17:54:11.861Z,7.40
2019-04-06T17:56:52.540Z,9.10
2019-04-06T17:59:51.485Z,7.03
2019-04-06T18:02:47.892Z,7.13
2019-04-06T18:05:29.365Z,7.37
2019-04-06T18:08:21.247Z,6.93
2019-04-06T18:11:08.767Z,7.33
2019-04-06T18:13:50.969Z,7.03
2019-04-06T18:16:23.339Z,7.80
2019-04-06T18:18:52.627Z,6.40
2019-04-06T18:21:22.261Z,8.10
2019-04-06T18:23:51.711Z,7.03
2019-04-06T18:26:20.995Z,6.03
2019-04-06T18:28:50.840Z,6.33
2019-04-06T18:31:54.287Z,7.47
2019-04-06T18:34:23.891Z,8.77
2019-04-06T18:36:59.536Z,6.47
2019-04-06T18:39:31.269Z,6.77
2019-04-06T18:42:00.517Z,7.33
2019-04-06T18:44:29.824Z,6.07
2019-04-06T18:47:00.825Z,6.30
2019-04-06T18:49:30.079Z,9.37
2019-04-06T18:51:59.408Z,6.87
2019-04-06T18:54:29.046Z,7.53
2019-04-06T18:56:58.370Z,6.47
2019-04-06T18:59:27.674Z,6.07
2019-04-06T19:01:57.332Z,6.83
2019-04-06T19:04:27.381Z,6.40
2019-04-06T19:06:56.818Z,6.93
2019-04-06T19:09:26.105Z,6.57
2019-04-06T19:11:57.031Z,7.27
2019-04-06T19:14:26.932Z,7.30
2019-04-06T19:16:56.275Z,7.33
2019-04-06T19:19:26.123Z,7.40
2019-04-06T19:21:55.632Z,6.23
2019-04-06T19:24:25.018Z,6.43
2019-04-06T19:26:54.315Z,6.27
2019-04-06T19:29:23.962Z,6.60
2019-04-06T19:31:53.308Z,6.43
2019-04-06T19:34:22.612Z,6.90
2019-04-06T19:36:52.173Z,6.30
2019-04-06T19:39:21.603Z,6.07
2019-04-06T19:41:51.986Z,6.57
2019-04-06T19:44:21.660Z,5.43
2019-04-06T19:46:51.307Z,7.43
2019-04-06T19:49:20.604Z,6.77
2019-04-06T19:51:49.899Z,5.60
2019-04-06T19:54:19.236Z,6.40
2019-04-06T19:56:48.640Z,5.90
2019-04-06T19:59:17.902Z,6.47
2019-04-06T20:01:47.252Z,6.90
2019-04-06T20:04:16.833Z,6.17
2019-04-06T20:06:46.878Z,6.60
2019-04-06T20:09:16.212Z,6.40
2019-04-06T20:11:45.602Z,6.40
2019-04-06T20:14:14.862Z,5.90
2019-04-06T20:16:45.142Z,5.57
2019-04-06T20:19:14.417Z,5.00
2019-04-06T20:21:43.726Z,5.20
2019-04-06T20:24:12.987Z,5.00
2019-04-06T20:26:42.780Z,4.83
2019-04-06T20:29:12.654Z,4.33
2019-04-06T20:31:42.089Z,4.17
2019-04-06T20:34:11.876Z,4.67
2019-04-06T20:36:41.156Z,4.60
2019-04-06T20:39:11.289Z,5.07
2019-04-06T20:41:40.628Z,5.17
2019-04-06T20:44:09.917Z,5.27
2019-04-06T20:46:39.785Z,5.27
2019-04-06T20:49:09.290Z,5.17
2019-04-06T20:51:38.988Z,4.83
2019-04-06T20:54:09.055Z,4.80
2019-04-06T20:56:38.456Z,4.73
2019-04-06T20:59:09.069Z,5.20
2019-04-06T21:01:39.836Z,4.63
2019-04-06T21:04:09.239Z,4.67
2019-04-06T21:06:39.124Z,4.80
2019-04-06T21:09:14.035Z,4.30
2019-04-06T21:11:43.452Z,4.70
2019-04-06T21:14:14.381Z,3.80
2019-04-06T21:16:43.863Z,3.97
2019-04-06T21:19:13.200Z,4.20
2019-04-06T21:21:42.742Z,3.77
2019-04-06T21:24:12.497Z,3.23
2019-04-06T21:26:43.315Z,3.27
2019-04-06T21:29:12.650Z,3.20
2019-04-06T21:32:01.627Z,3.67
2019-04-06T21:34:32.848Z,3.60
2019-04-06T21:37:02.137Z,3.00
2019-04-06T21:39:31.447Z,3.53
2019-04-06T21:42:00.789Z,3.33
2019-04-06T21:44:30.051Z,4.00
2019-04-06T21:46:59.383Z,3.93
2019-04-06T21:49:29.090Z,3.70
2019-04-06T21:51:58.701Z,3.20
2019-04-06T21:54:28.643Z,4.40
2019-04-06T21:56:58.404Z,4.40
2019-04-06T21:59:28.065Z,3.40
2019-04-06T22:01:59.469Z,3.53
2019-04-06T22:04:29.336Z,4.23
2019-04-06T22:06:58.787Z,3.97
2019-04-06T22:09:28.791Z,3.70
2019-04-06T22:11:58.532Z,4.20
2019-04-06T22:14:28.404Z,3.63
2019-04-06T22:16:58.390Z,4.07
2019-04-06T22:19:27.941Z,4.03
2019-04-06T22:21:57.304Z,4.03
2019-04-06T22:24:27.223Z,3.63
2019-04-06T22:26:57.407Z,3.83
2019-04-06T22:29:27.500Z,3.60
2019-04-06T22:31:58.473Z,4.10
2019-04-06T22:34:37.155Z,3.43
2019-04-06T22:36:59.758Z,4.13
2019-04-06T22:39:29.859Z,3.30
2019-04-06T22:41:59.355Z,3.50
2019-04-06T22:44:29.100Z,3.37
2019-04-06T22:46:58.899Z,3.10
2019-04-06T22:49:28.428Z,3.37
2019-04-06T22:51:58.453Z,3.10
2019-04-06T22:54:28.727Z,3.00
2019-04-06T22:56:58.827Z,3.47
2019-04-06T22:59:30.009Z,3.37
2019-04-06T23:01:59.800Z,3.67
2019-04-06T23:04:47.236Z,3.37
2019-04-06T23:07:13.369Z,3.00
2019-04-06T23:09:44.361Z,3.40
2019-04-06T23:12:18.037Z,3.30
2019-04-06T23:14:49.161Z,2.93
2019-04-06T23:17:18.979Z,3.60
2019-04-06T23:19:48.830Z,3.27
2019-04-06T23:22:19.617Z,2.67
2019-04-06T23:24:48.863Z,3.20
2019-04-06T23:27:18.287Z,4.03
2019-04-06T23:29:47.600Z,2.80
2019-04-06T23:32:16.988Z,3.40
2019-04-06T23:34:59.451Z,3.73
2019-04-06T23:37:20.542Z,3.27
2019-04-06T23:39:50.436Z,3.23
2019-04-06T23:42:20.521Z,3.90
2019-04-06T23:44:49.950Z,3.43
2019-04-06T23:47:19.244Z,3.50
2019-04-06T23:49:48.546Z,3.93
2019-04-06T23:52:18.311Z,3.63
2019-04-06T23:54:49.201Z,3.50
2019-04-06T23:57:18.722Z,3.73
2019-04-06T23:59:47.933Z,3.63
